sensor_id;sensor_type;location;lat;lon;timestamp;pressure;altitude;pressure_sealevel;temperature;humidity
28167;BME280;15455;53.376;-6.262;2022-07-18T00:01:47;101496.31;;;19.22;59.11
28167;BME280;15455;53.376;-6.262;2022-07-18T00:04:34;101495.63;;;19.16;59.82
28167;BME280;15455;53.376;-6.262;2022-07-18T00:07:20;101501.94;;;19.10;62.47
28167;BME280;15455;53.376;-6.262;2022-07-18T00:10:05;101495.25;;;18.97;63.50
28167;BME280;15455;53.376;-6.262;2022-07-18T00:12:51;101498.09;;;18.86;65.61
28167;BME280;15455;53.376;-6.262;2022-07-18T00:15:37;101497.38;;;18.81;65.30
28167;BME280;15455;53.376;-6.262;2022-07-18T00:18:22;101501.88;;;18.75;67.24
28167;BME280;15455;53.376;-6.262;2022-07-18T00:21:08;101490.69;;;18.64;65.01
28167;BME280;15455;53.376;-6.262;2022-07-18T00:23:54;101501.28;;;18.64;67.02
28167;BME280;15455;53.376;-6.262;2022-07-18T00:26:40;101496.25;;;18.53;66.25
28167;BME280;15455;53.376;-6.262;2022-07-18T00:29:25;101502.56;;;18.48;67.05
28167;BME280;15455;53.376;-6.262;2022-07-18T00:32:11;101505.94;;;18.53;69.49
28167;BME280;15455;53.376;-6.262;2022-07-18T00:34:58;101500.78;;;18.48;67.62
28167;BME280;15455;53.376;-6.262;2022-07-18T00:37:44;101498.97;;;18.50;69.89
28167;BME280;15455;53.376;-6.262;2022-07-18T00:40:30;101492.88;;;18.47;70.35
28167;BME280;15455;53.376;-6.262;2022-07-18T00:43:16;101493.81;;;18.44;70.03
28167;BME280;15455;53.376;-6.262;2022-07-18T00:46:07;101487.56;;;18.48;71.50
28167;BME280;15455;53.376;-6.262;2022-07-18T00:48:53;101492.91;;;18.45;71.21
28167;BME280;15455;53.376;-6.262;2022-07-18T00:51:38;101493.16;;;18.36;69.58
28167;BME280;15455;53.376;-6.262;2022-07-18T00:54:24;101489.72;;;18.31;70.42
28167;BME280;15455;53.376;-6.262;2022-07-18T00:57:11;101495.03;;;18.29;73.33
28167;BME280;15455;53.376;-6.262;2022-07-18T00:59:57;101488.09;;;18.25;73.19
28167;BME280;15455;53.376;-6.262;2022-07-18T01:03:01;101489.06;;;18.21;71.94
28167;BME280;15455;53.376;-6.262;2022-07-18T01:05:47;101482.22;;;18.12;72.21
28167;BME280;15455;53.376;-6.262;2022-07-18T01:08:33;101483.34;;;18.00;73.12
28167;BME280;15455;53.376;-6.262;2022-07-18T01:11:20;101487.22;;;17.82;74.48
28167;BME280;15455;53.376;-6.262;2022-07-18T01:14:07;101478.78;;;17.63;74.69
28167;BME280;15455;53.376;-6.262;2022-07-18T01:16:53;101485.28;;;17.47;78.14
28167;BME280;15455;53.376;-6.262;2022-07-18T01:19:39;101478.59;;;17.27;79.74
28167;BME280;15455;53.376;-6.262;2022-07-18T01:22:24;101472.69;;;17.16;83.76
28167;BME280;15455;53.376;-6.262;2022-07-18T01:25:11;101477.41;;;16.97;81.46
28167;BME280;15455;53.376;-6.262;2022-07-18T01:27:57;101467.91;;;16.85;85.52
28167;BME280;15455;53.376;-6.262;2022-07-18T01:30:43;101473.44;;;16.68;84.00
28167;BME280;15455;53.376;-6.262;2022-07-18T01:33:31;101467.56;;;16.52;85.13
28167;BME280;15455;53.376;-6.262;2022-07-18T01:36:17;101470.16;;;16.54;89.58
28167;BME280;15455;53.376;-6.262;2022-07-18T01:39:02;101462.44;;;16.43;87.23
28167;BME280;15455;53.376;-6.262;2022-07-18T01:41:55;101469.69;;;16.28;82.74
28167;BME280;15455;53.376;-6.262;2022-07-18T01:44:41;101474.19;;;16.20;84.95
28167;BME280;15455;53.376;-6.262;2022-07-18T01:47:27;101460.34;;;16.06;85.46
28167;BME280;15455;53.376;-6.262;2022-07-18T01:50:13;101471.88;;;15.95;87.18
28167;BME280;15455;53.376;-6.262;2022-07-18T01:52:58;101468.50;;;15.86;89.65
28167;BME280;15455;53.376;-6.262;2022-07-18T01:55:44;101473.81;;;15.81;93.11
28167;BME280;15455;53.376;-6.262;2022-07-18T01:58:29;101467.88;;;15.63;89.00
28167;BME280;15455;53.376;-6.262;2022-07-18T02:01:16;101468.00;;;15.54;89.66
28167;BME280;15455;53.376;-6.262;2022-07-18T02:04:02;101465.38;;;15.51;95.42
28167;BME280;15455;53.376;-6.262;2022-07-18T02:06:48;101462.91;;;15.37;92.12
28167;BME280;15455;53.376;-6.262;2022-07-18T02:09:34;101459.50;;;15.26;92.13
28167;BME280;15455;53.376;-6.262;2022-07-18T02:12:19;101462.19;;;15.21;93.84
28167;BME280;15455;53.376;-6.262;2022-07-18T02:15:07;101456.06;;;15.22;98.32
28167;BME280;15455;53.376;-6.262;2022-07-18T02:17:53;101449.88;;;15.25;100.00
28167;BME280;15455;53.376;-6.262;2022-07-18T02:20:38;101443.75;;;15.24;100.00
28167;BME280;15455;53.376;-6.262;2022-07-18T02:23:24;101440.28;;;15.24;98.92
28167;BME280;15455;53.376;-6.262;2022-07-18T02:26:10;101437.63;;;15.21;100.00
28167;BME280;15455;53.376;-6.262;2022-07-18T02:28:56;101435.03;;;15.19;100.00
28167;BME280;15455;53.376;-6.262;2022-07-18T02:31:41;101439.53;;;15.09;97.82
28167;BME280;15455;53.376;-6.262;2022-07-18T02:34:27;101443.97;;;15.03;98.32
28167;BME280;15455;53.376;-6.262;2022-07-18T02:37:12;101437.00;;;14.99;100.00
28167;BME280;15455;53.376;-6.262;2022-07-18T02:39:57;101439.75;;;14.86;97.74
28167;BME280;15455;53.376;-6.262;2022-07-18T02:42:43;101439.78;;;14.80;100.00
28167;BME280;15455;53.376;-6.262;2022-07-18T02:45:29;101429.34;;;14.74;100.00
28167;BME280;15455;53.376;-6.262;2022-07-18T02:48:15;101431.94;;;14.79;100.00
28167;BME280;15455;53.376;-6.262;2022-07-18T02:51:00;101433.75;;;14.73;100.00
28167;BME280;15455;53.376;-6.262;2022-07-18T02:53:46;101432.06;;;14.65;100.00
28167;BME280;15455;53.376;-6.262;2022-07-18T02:56:31;101432.09;;;14.55;100.00
28167;BME280;15455;53.376;-6.262;2022-07-18T02:59:17;101436.47;;;14.56;100.00
28167;BME280;15455;53.376;-6.262;2022-07-18T03:02:02;101432.94;;;14.62;100.00
28167;BME280;15455;53.376;-6.262;2022-07-18T03:04:48;101432.97;;;14.57;100.00
28167;BME280;15455;53.376;-6.262;2022-07-18T03:07:34;101439.06;;;14.61;100.00
28167;BME280;15455;53.376;-6.262;2022-07-18T03:10:20;101432.97;;;14.54;100.00
28167;BME280;15455;53.376;-6.262;2022-07-18T03:13:05;101433.84;;;14.56;100.00
28167;BME280;15455;53.376;-6.262;2022-07-18T03:15:51;101437.41;;;14.49;100.00
28167;BME280;15455;53.376;-6.262;2022-07-18T03:18:36;101432.94;;;14.65;100.00
28167;BME280;15455;53.376;-6.262;2022-07-18T03:21:22;101432.94;;;14.59;100.00
28167;BME280;15455;53.376;-6.262;2022-07-18T03:24:08;101435.59;;;14.56;100.00
28167;BME280;15455;53.376;-6.262;2022-07-18T03:26:53;101437.41;;;14.48;100.00
28167;BME280;15455;53.376;-6.262;2022-07-18T03:29:39;101439.16;;;14.46;100.00
28167;BME280;15455;53.376;-6.262;2022-07-18T03:32:25;101434.88;;;14.35;100.00
28167;BME280;15455;53.376;-6.262;2022-07-18T03:35:10;101441.03;;;14.28;100.00
28167;BME280;15455;53.376;-6.262;2022-07-18T03:37:56;101434.09;;;14.18;100.00
28167;BME280;15455;53.376;-6.262;2022-07-18T03:40:41;101438.53;;;14.11;100.00
28167;BME280;15455;53.376;-6.262;2022-07-18T03:43:26;101439.38;;;14.16;100.00
28167;BME280;15455;53.376;-6.262;2022-07-18T03:46:12;101439.41;;;14.10;100.00
28167;BME280;15455;53.376;-6.262;2022-07-18T03:48:58;101437.72;;;14.01;100.00
28167;BME280;15455;53.376;-6.262;2022-07-18T03:51:44;101426.31;;;14.05;100.00
28167;BME280;15455;53.376;-6.262;2022-07-18T03:54:29;101435.09;;;14.01;100.00
28167;BME280;15455;53.376;-6.262;2022-07-18T03:57:15;101420.22;;;14.00;100.00
28167;BME280;15455;53.376;-6.262;2022-07-18T04:00:01;101418.53;;;13.90;100.00
28167;BME280;15455;53.376;-6.262;2022-07-18T04:02:55;101417.66;;;13.86;100.00
28167;BME280;15455;53.376;-6.262;2022-07-18T04:05:48;101418.56;;;13.85;100.00
28167;BME280;15455;53.376;-6.262;2022-07-18T04:08:34;101408.13;;;13.70;100.00
28167;BME280;15455;53.376;-6.262;2022-07-18T04:11:19;101407.28;;;13.65;100.00
28167;BME280;15455;53.376;-6.262;2022-07-18T04:14:09;101407.28;;;13.63;100.00
28167;BME280;15455;53.376;-6.262;2022-07-18T04:16:54;101416.06;;;13.53;100.00
28167;BME280;15455;53.376;-6.262;2022-07-18T04:19:40;101404.69;;;13.59;100.00
28167;BME280;15455;53.376;-6.262;2022-07-18T04:22:25;101405.56;;;13.54;100.00
28167;BME280;15455;53.376;-6.262;2022-07-18T04:25:11;101401.19;;;13.60;100.00
28167;BME280;15455;53.376;-6.262;2022-07-18T04:27:57;101400.31;;;13.58;100.00
28167;BME280;15455;53.376;-6.262;2022-07-18T04:30:43;101391.59;;;13.52;100.00
28167;BME280;15455;53.376;-6.262;2022-07-18T04:33:28;101389.81;;;13.64;100.00
28167;BME280;15455;53.376;-6.262;2022-07-18T04:36:14;101392.44;;;13.56;100.00
28167;BME280;15455;53.376;-6.262;2022-07-18T04:39:00;101395.09;;;13.51;100.00
28167;BME280;15455;53.376;-6.262;2022-07-18T04:41:45;101400.34;;;13.51;100.00
28167;BME280;15455;53.376;-6.262;2022-07-18T04:44:32;101402.97;;;13.48;100.00
28167;BME280;15455;53.376;-6.262;2022-07-18T04:47:18;101396.84;;;13.51;100.00
28167;BME280;15455;53.376;-6.262;2022-07-18T04:50:05;101401.25;;;13.44;100.00
28167;BME280;15455;53.376;-6.262;2022-07-18T04:52:52;101402.13;;;13.46;100.00
28167;BME280;15455;53.376;-6.262;2022-07-18T04:55:37;101394.28;;;13.45;100.00
28167;BME280;15455;53.376;-6.262;2022-07-18T04:58:23;101403.84;;;13.47;100.00
28167;BME280;15455;53.376;-6.262;2022-07-18T05:01:08;101402.97;;;13.51;100.00
28167;BME280;15455;53.376;-6.262;2022-07-18T05:03:54;101405.56;;;13.54;100.00
28167;BME280;15455;53.376;-6.262;2022-07-18T05:06:39;101399.47;;;13.54;100.00
28167;BME280;15455;53.376;-6.262;2022-07-18T05:09:25;101398.53;;;13.66;100.00
28167;BME280;15455;53.376;-6.262;2022-07-18T05:12:10;101397.63;;;13.75;100.00
28167;BME280;15455;53.376;-6.262;2022-07-18T05:14:55;101397.59;;;13.84;100.00
28167;BME280;15455;53.376;-6.262;2022-07-18T05:17:47;101397.50;;;13.96;100.00
28167;BME280;15455;53.376;-6.262;2022-07-18T05:20:33;101397.44;;;14.07;100.00
28167;BME280;15455;53.376;-6.262;2022-07-18T05:23:25;101400.84;;;14.20;100.00
28167;BME280;15455;53.376;-6.262;2022-07-18T05:26:11;101399.03;;;14.27;100.00
28167;BME280;15455;53.376;-6.262;2022-07-18T05:28:56;101405.97;;;14.37;100.00
28167;BME280;15455;53.376;-6.262;2022-07-18T05:31:42;101398.06;;;14.43;100.00
28167;BME280;15455;53.376;-6.262;2022-07-18T05:34:28;101397.03;;;14.64;100.00
28167;BME280;15455;53.376;-6.262;2022-07-18T05:37:13;101396.03;;;14.76;100.00
28167;BME280;15455;53.376;-6.262;2022-07-18T05:39:59;101391.56;;;14.86;100.00
28167;BME280;15455;53.376;-6.262;2022-07-18T05:42:44;101394.88;;;15.05;100.00
28167;BME280;15455;53.376;-6.262;2022-07-18T05:45:40;101387.69;;;15.21;100.00
28167;BME280;15455;53.376;-6.262;2022-07-18T05:48:26;101381.38;;;15.36;100.00
28167;BME280;15455;53.376;-6.262;2022-07-18T05:51:12;101382.06;;;15.52;100.00
28167;BME280;15455;53.376;-6.262;2022-07-18T05:53:57;101382.78;;;15.65;100.00
28167;BME280;15455;53.376;-6.262;2022-07-18T05:56:42;101380.78;;;15.84;100.00
28167;BME280;15455;53.376;-6.262;2022-07-18T05:59:28;101372.66;;;16.01;100.00
28167;BME280;15455;53.376;-6.262;2022-07-18T06:02:13;101370.69;;;16.15;100.00
28167;BME280;15455;53.376;-6.262;2022-07-18T06:04:59;101380.13;;;16.28;100.00
28167;BME280;15455;53.376;-6.262;2022-07-18T06:08:05;101373.66;;;16.46;100.00
28167;BME280;15455;53.376;-6.262;2022-07-18T06:10:51;101375.19;;;16.61;100.00
28167;BME280;15455;53.376;-6.262;2022-07-18T06:13:38;101378.47;;;16.74;100.00
28167;BME280;15455;53.376;-6.262;2022-07-18T06:16:25;101379.91;;;16.92;100.00
28167;BME280;15455;53.376;-6.262;2022-07-18T06:19:11;101376.09;;;17.07;100.00
28167;BME280;15455;53.376;-6.262;2022-07-18T06:22:05;101384.63;;;17.23;100.00
28167;BME280;15455;53.376;-6.262;2022-07-18T06:24:51;101379.03;;;17.37;100.00
28167;BME280;15455;53.376;-6.262;2022-07-18T06:27:37;101381.41;;;17.51;100.00
28167;BME280;15455;53.376;-6.262;2022-07-18T06:30:22;101382.94;;;17.61;100.00
28167;BME280;15455;53.376;-6.262;2022-07-18T06:33:08;101387.00;;;17.76;100.00
28167;BME280;15455;53.376;-6.262;2022-07-18T06:35:53;101374.41;;;17.91;100.00
28167;BME280;15455;53.376;-6.262;2022-07-18T06:38:39;101376.75;;;18.03;100.00
28167;BME280;15455;53.376;-6.262;2022-07-18T06:41:25;101381.78;;;18.14;100.00
28167;BME280;15455;53.376;-6.262;2022-07-18T06:44:10;101383.34;;;18.22;100.00
28167;BME280;15455;53.376;-6.262;2022-07-18T06:46:56;101375.13;;;18.35;100.00
28167;BME280;15455;53.376;-6.262;2022-07-18T06:49:44;101385.41;;;18.46;100.00
28167;BME280;15455;53.376;-6.262;2022-07-18T06:52:30;101373.69;;;18.56;100.00
28167;BME280;15455;53.376;-6.262;2022-07-18T06:55:15;101372.56;;;18.66;100.00
28167;BME280;15455;53.376;-6.262;2022-07-18T06:58:01;101372.34;;;18.74;100.00
28167;BME280;15455;53.376;-6.262;2022-07-18T07:00:47;101372.19;;;18.80;100.00
28167;BME280;15455;53.376;-6.262;2022-07-18T07:03:32;101377.34;;;18.85;100.00
28167;BME280;15455;53.376;-6.262;2022-07-18T07:06:18;101376.31;;;18.92;100.00
28167;BME280;15455;53.376;-6.262;2022-07-18T07:09:03;101374.31;;;19.00;100.00
28167;BME280;15455;53.376;-6.262;2022-07-18T07:11:48;101381.09;;;19.11;100.00
28167;BME280;15455;53.376;-6.262;2022-07-18T07:14:34;101369.38;;;19.19;100.00
28167;BME280;15455;53.376;-6.262;2022-07-18T07:17:19;101378.81;;;19.28;100.00
28167;BME280;15455;53.376;-6.262;2022-07-18T07:20:06;101379.38;;;19.39;100.00
28167;BME280;15455;53.376;-6.262;2022-07-18T07:22:54;101366.75;;;19.49;100.00
28167;BME280;15455;53.376;-6.262;2022-07-18T07:25:40;101372.59;;;19.60;99.62
28167;BME280;15455;53.376;-6.262;2022-07-18T07:28:26;101369.75;;;19.67;96.60
28167;BME280;15455;53.376;-6.262;2022-07-18T07:31:11;101368.56;;;19.77;97.44
28167;BME280;15455;53.376;-6.262;2022-07-18T07:33:56;101361.44;;;19.81;95.44
28167;BME280;15455;53.376;-6.262;2022-07-18T07:36:50;101367.31;;;19.90;94.34
28167;BME280;15455;53.376;-6.262;2022-07-18T07:39:36;101346.78;;;19.97;92.54
28167;BME280;15455;53.376;-6.262;2022-07-18T07:42:21;101359.75;;;20.05;93.72
28167;BME280;15455;53.376;-6.262;2022-07-18T07:45:07;101359.53;;;20.12;91.39
28167;BME280;15455;53.376;-6.262;2022-07-18T07:47:52;101354.97;;;20.16;90.26
28167;BME280;15455;53.376;-6.262;2022-07-18T07:50:38;101351.16;;;20.25;92.13
28167;BME280;15455;53.376;-6.262;2022-07-18T07:53:23;101346.53;;;20.32;89.83
28167;BME280;15455;53.376;-6.262;2022-07-18T07:56:09;101350.75;;;20.37;86.67
28167;BME280;15455;53.376;-6.262;2022-07-18T07:58:55;101351.38;;;20.45;88.65
28167;BME280;15455;53.376;-6.262;2022-07-18T08:01:41;101349.25;;;20.55;89.35
28167;BME280;15455;53.376;-6.262;2022-07-18T08:04:27;101349.00;;;20.63;86.42
28167;BME280;15455;53.376;-6.262;2022-07-18T08:07:12;101341.56;;;20.74;84.22
28167;BME280;15455;53.376;-6.262;2022-07-18T08:09:58;101347.44;;;20.82;83.63
28167;BME280;15455;53.376;-6.262;2022-07-18T08:12:44;101348.00;;;20.92;81.68
28167;BME280;15455;53.376;-6.262;2022-07-18T08:15:29;101345.94;;;21.01;78.20
28167;BME280;15455;53.376;-6.262;2022-07-18T08:18:15;101340.22;;;21.11;75.57
28167;BME280;15455;53.376;-6.262;2022-07-18T08:21:01;101339.06;;;21.19;73.49
28167;BME280;15455;53.376;-6.262;2022-07-18T08:23:47;101330.88;;;21.25;70.99
28167;BME280;15455;53.376;-6.262;2022-07-18T08:26:33;101327.06;;;21.32;73.73
28167;BME280;15455;53.376;-6.262;2022-07-18T08:29:20;101338.38;;;21.37;75.09
28167;BME280;15455;53.376;-6.262;2022-07-18T08:32:26;101329.25;;;21.44;76.14
28167;BME280;15455;53.376;-6.262;2022-07-18T08:35:12;101320.16;;;21.51;74.42
28167;BME280;15455;53.376;-6.262;2022-07-18T08:37:57;101331.16;;;21.64;75.17
28167;BME280;15455;53.376;-6.262;2022-07-18T08:40:47;101324.59;;;21.73;76.75
28167;BME280;15455;53.376;-6.262;2022-07-18T08:43:32;101327.00;;;21.79;76.88
28167;BME280;15455;53.376;-6.262;2022-07-18T08:46:21;101338.34;;;21.84;76.63
28167;BME280;15455;53.376;-6.262;2022-07-18T08:49:07;101329.25;;;21.90;76.10
28167;BME280;15455;53.376;-6.262;2022-07-18T08:51:53;101336.09;;;21.96;74.28
28167;BME280;15455;53.376;-6.262;2022-07-18T08:54:39;101339.28;;;22.04;69.25
28167;BME280;15455;53.376;-6.262;2022-07-18T08:57:25;101343.41;;;22.13;71.39
28167;BME280;15455;53.376;-6.262;2022-07-18T09:00:11;101343.25;;;22.16;71.63
28167;BME280;15455;53.376;-6.262;2022-07-18T09:02:58;101343.00;;;22.22;70.71
28167;BME280;15455;53.376;-6.262;2022-07-18T09:05:44;101334.75;;;22.28;70.82
28167;BME280;15455;53.376;-6.262;2022-07-18T09:08:29;101328.41;;;22.32;67.54
28167;BME280;15455;53.376;-6.262;2022-07-18T09:11:15;101327.16;;;22.41;65.83
28167;BME280;15455;53.376;-6.262;2022-07-18T09:17:26;101311.13;;;22.63;69.22
28167;BME280;15455;53.376;-6.262;2022-07-18T09:20:13;101302.53;;;22.77;68.48
28167;BME280;15455;53.376;-6.262;2022-07-18T09:23:12;101293.88;;;22.93;62.63
28167;BME280;15455;53.376;-6.262;2022-07-18T09:25:58;101298.38;;;23.11;60.73
28167;BME280;15455;53.376;-6.262;2022-07-18T09:28:50;101294.97;;;23.27;57.32
28167;BME280;15455;53.376;-6.262;2022-07-18T09:31:56;101284.81;;;23.54;51.51
28167;BME280;15455;53.376;-6.262;2022-07-18T09:34:41;101271.75;;;23.67;54.85
28167;BME280;15455;53.376;-6.262;2022-07-18T09:37:27;101286.56;;;23.72;55.53
28167;BME280;15455;53.376;-6.262;2022-07-18T09:40:21;101277.41;;;23.78;60.38
28167;BME280;15455;53.376;-6.262;2022-07-18T09:43:09;101279.66;;;23.87;56.94
28167;BME280;15455;53.376;-6.262;2022-07-18T09:45:55;101265.00;;;23.96;49.15
28167;BME280;15455;53.376;-6.262;2022-07-18T09:48:41;101268.38;;;24.00;50.57
28167;BME280;15455;53.376;-6.262;2022-07-18T09:51:27;101272.31;;;24.10;48.55
28167;BME280;15455;53.376;-6.262;2022-07-18T09:54:13;101262.63;;;24.25;49.95
28167;BME280;15455;53.376;-6.262;2022-07-18T09:56:59;101266.72;;;24.32;53.29
28167;BME280;15455;53.376;-6.262;2022-07-18T09:59:45;101269.94;;;24.39;52.34
28167;BME280;15455;53.376;-6.262;2022-07-18T10:02:33;101268.59;;;24.48;54.38
28167;BME280;15455;53.376;-6.262;2022-07-18T10:05:19;101270.84;;;24.55;55.57
28167;BME280;15455;53.376;-6.262;2022-07-18T10:08:10;101267.66;;;24.66;51.47
28167;BME280;15455;53.376;-6.262;2022-07-18T10:10:57;101272.13;;;24.66;52.09
28167;BME280;15455;53.376;-6.262;2022-07-18T10:13:44;101264.81;;;24.69;57.20
28167;BME280;15455;53.376;-6.262;2022-07-18T10:16:30;101266.97;;;24.78;56.09
28167;BME280;15455;53.376;-6.262;2022-07-18T10:19:16;101264.41;;;24.93;55.03
28167;BME280;15455;53.376;-6.262;2022-07-18T10:22:03;101269.19;;;25.04;53.61
28167;BME280;15455;53.376;-6.262;2022-07-18T10:24:50;101267.72;;;25.14;51.70
28167;BME280;15455;53.376;-6.262;2022-07-18T10:27:51;101266.44;;;25.21;51.39
28167;BME280;15455;53.376;-6.262;2022-07-18T10:30:41;101270.16;;;25.35;54.21
28167;BME280;15455;53.376;-6.262;2022-07-18T10:33:44;101263.44;;;25.43;50.01
28167;BME280;15455;53.376;-6.262;2022-07-18T10:36:34;101267.81;;;25.60;54.32
28167;BME280;15455;53.376;-6.262;2022-07-18T10:39:24;101263.94;;;25.66;50.20
28167;BME280;15455;53.376;-6.262;2022-07-18T10:42:19;101256.91;;;25.79;48.84
28167;BME280;15455;53.376;-6.262;2022-07-18T10:45:28;101253.63;;;25.90;49.11
28167;BME280;15455;53.376;-6.262;2022-07-18T10:51:30;101248.75;;;26.27;50.95
28167;BME280;15455;53.376;-6.262;2022-07-18T10:54:15;101242.97;;;26.49;49.38
28167;BME280;15455;53.376;-6.262;2022-07-18T11:00:00;101243.19;;;26.75;51.18
28167;BME280;15455;53.376;-6.262;2022-07-18T11:02:48;101244.34;;;26.71;49.76
28167;BME280;15455;53.376;-6.262;2022-07-18T11:05:52;101252.44;;;26.55;52.92
28167;BME280;15455;53.376;-6.262;2022-07-18T11:08:38;101254.72;;;26.47;54.29
28167;BME280;15455;53.376;-6.262;2022-07-18T11:11:23;101255.88;;;26.57;56.67
28167;BME280;15455;53.376;-6.262;2022-07-18T11:14:09;101250.13;;;26.63;54.39
28167;BME280;15455;53.376;-6.262;2022-07-18T11:17:04;101255.31;;;26.66;55.21
28167;BME280;15455;53.376;-6.262;2022-07-18T11:25:59;101253.19;;;27.00;53.74
28167;BME280;15455;53.376;-6.262;2022-07-18T11:28:56;101257.38;;;27.19;54.76
28167;BME280;15455;53.376;-6.262;2022-07-18T11:31:50;101251.22;;;27.31;52.03
28167;BME280;15455;53.376;-6.262;2022-07-18T11:34:35;101251.25;;;27.59;51.33
28167;BME280;15455;53.376;-6.262;2022-07-18T11:37:27;101252.84;;;27.88;49.42
28167;BME280;15455;53.376;-6.262;2022-07-18T11:40:13;101249.63;;;27.96;49.54
28167;BME280;15455;53.376;-6.262;2022-07-18T11:43:06;101235.63;;;28.05;51.78
28167;BME280;15455;53.376;-6.262;2022-07-18T11:46:07;101220.81;;;28.13;49.38
28167;BME280;15455;53.376;-6.262;2022-07-18T11:49:02;101219.94;;;28.25;48.09
28167;BME280;15455;53.376;-6.262;2022-07-18T11:51:48;101227.50;;;28.20;47.61
28167;BME280;15455;53.376;-6.262;2022-07-18T11:54:34;101236.16;;;28.23;47.39
28167;BME280;15455;53.376;-6.262;2022-07-18T11:57:27;101232.19;;;28.29;46.49
28167;BME280;15455;53.376;-6.262;2022-07-18T12:00:18;101235.66;;;28.31;47.04
28167;BME280;15455;53.376;-6.262;2022-07-18T12:03:16;101227.59;;;28.31;48.29
28167;BME280;15455;53.376;-6.262;2022-07-18T12:06:22;101223.81;;;28.34;45.17
28167;BME280;15455;53.376;-6.262;2022-07-18T12:09:08;101210.00;;;28.40;46.85
28167;BME280;15455;53.376;-6.262;2022-07-18T12:11:54;101207.94;;;28.31;47.73
28167;BME280;15455;53.376;-6.262;2022-07-18T12:15:01;101205.22;;;27.92;49.27
28167;BME280;15455;53.376;-6.262;2022-07-18T12:17:48;101206.75;;;27.56;48.45
28167;BME280;15455;53.376;-6.262;2022-07-18T12:20:36;101210.44;;;27.41;49.51
28167;BME280;15455;53.376;-6.262;2022-07-18T12:23:28;101199.81;;;27.39;48.11
28167;BME280;15455;53.376;-6.262;2022-07-18T12:26:30;101203.22;;;27.68;51.14
28167;BME280;15455;53.376;-6.262;2022-07-18T12:29:31;101197.63;;;27.99;50.61
28167;BME280;15455;53.376;-6.262;2022-07-18T12:32:17;101201.06;;;28.14;50.29
28167;BME280;15455;53.376;-6.262;2022-07-18T12:35:07;101193.78;;;28.29;48.56
28167;BME280;15455;53.376;-6.262;2022-07-18T12:38:14;101194.84;;;28.39;49.00
28167;BME280;15455;53.376;-6.262;2022-07-18T12:41:00;101192.91;;;28.28;48.78
28167;BME280;15455;53.376;-6.262;2022-07-18T12:43:47;101191.72;;;28.06;48.73
28167;BME280;15455;53.376;-6.262;2022-07-18T12:46:32;101195.97;;;27.96;45.54
28167;BME280;15455;53.376;-6.262;2022-07-18T12:49:18;101188.06;;;28.07;50.00
28167;BME280;15455;53.376;-6.262;2022-07-18T12:52:04;101177.72;;;28.66;47.84
28167;BME280;15455;53.376;-6.262;2022-07-18T12:54:50;101169.06;;;29.48;41.79
28167;BME280;15455;53.376;-6.262;2022-07-18T12:57:36;101178.19;;;30.27;44.19
28167;BME280;15455;53.376;-6.262;2022-07-18T13:00:21;101163.66;;;30.64;38.41
28167;BME280;15455;53.376;-6.262;2022-07-18T13:03:07;101169.25;;;30.83;40.20
28167;BME280;15455;53.376;-6.262;2022-07-18T13:05:53;101167.38;;;31.07;41.59
28167;BME280;15455;53.376;-6.262;2022-07-18T13:08:38;101166.38;;;31.40;40.16
28167;BME280;15455;53.376;-6.262;2022-07-18T13:11:24;101164.75;;;31.81;41.64
28167;BME280;15455;53.376;-6.262;2022-07-18T13:14:15;101168.00;;;32.06;35.75
28167;BME280;15455;53.376;-6.262;2022-07-18T13:17:01;101168.44;;;32.32;37.06
28167;BME280;15455;53.376;-6.262;2022-07-18T13:19:47;101167.78;;;32.50;36.58
28167;BME280;15455;53.376;-6.262;2022-07-18T13:22:32;101178.16;;;32.76;37.95
28167;BME280;15455;53.376;-6.262;2022-07-18T13:25:23;101165.72;;;32.63;37.81
28167;BME280;15455;53.376;-6.262;2022-07-18T13:28:09;101166.00;;;32.60;36.54
28167;BME280;15455;53.376;-6.262;2022-07-18T13:30:55;101169.69;;;32.59;38.77
28167;BME280;15455;53.376;-6.262;2022-07-18T13:33:41;101172.03;;;32.43;38.84
28167;BME280;15455;53.376;-6.262;2022-07-18T13:36:29;101162.41;;;31.98;38.03
28167;BME280;15455;53.376;-6.262;2022-07-18T13:39:14;101160.19;;;32.03;40.63
28167;BME280;15455;53.376;-6.262;2022-07-18T13:42:00;101158.19;;;32.05;39.16
28167;BME280;15455;53.376;-6.262;2022-07-18T13:44:48;101157.28;;;32.16;37.90
28167;BME280;15455;53.376;-6.262;2022-07-18T13:47:33;101154.59;;;32.16;37.89
28167;BME280;15455;53.376;-6.262;2022-07-18T13:50:19;101152.78;;;32.05;37.11
28167;BME280;15455;53.376;-6.262;2022-07-18T13:53:04;101144.38;;;31.98;35.98
28167;BME280;15455;53.376;-6.262;2022-07-18T13:55:50;101142.28;;;31.60;36.22
28167;BME280;15455;53.376;-6.262;2022-07-18T13:58:35;101151.72;;;31.65;40.63
28167;BME280;15455;53.376;-6.262;2022-07-18T14:01:20;101149.72;;;31.89;37.99
28167;BME280;15455;53.376;-6.262;2022-07-18T14:04:07;101147.31;;;32.16;36.10
28167;BME280;15455;53.376;-6.262;2022-07-18T14:06:53;101148.13;;;32.38;39.34
28167;BME280;15455;53.376;-6.262;2022-07-18T14:09:39;101132.91;;;32.27;36.97
28167;BME280;15455;53.376;-6.262;2022-07-18T14:12:25;101137.00;;;32.22;37.27
28167;BME280;15455;53.376;-6.262;2022-07-18T14:15:11;101134.63;;;32.38;38.22
28167;BME280;15455;53.376;-6.262;2022-07-18T14:17:57;101129.94;;;32.40;37.34
28167;BME280;15455;53.376;-6.262;2022-07-18T14:20:43;101139.59;;;32.33;36.66
28167;BME280;15455;53.376;-6.262;2022-07-18T14:23:29;101139.88;;;32.40;35.57
28167;BME280;15455;53.376;-6.262;2022-07-18T14:26:14;101137.63;;;32.45;36.31
28167;BME280;15455;53.376;-6.262;2022-07-18T14:29:00;101133.16;;;32.65;37.80
28167;BME280;15455;53.376;-6.262;2022-07-18T14:31:45;101128.50;;;32.36;35.54
28167;BME280;15455;53.376;-6.262;2022-07-18T14:34:33;101133.88;;;31.74;40.33